Time;durP1;ratioP1;P1;durP2;ratioP2;P2;SDS_P1;SDS_P2;PMS_P1;PMS_P2;Temp;Humidity;BMP_temperature;BMP_pressure;BME280_temperature;BME280_humidity;BME280_pressure;Samples;Min_cycle;Max_cycle;Signal;HPM_P1;HPM_P2
2022/08/20 00:01:40;;;;;;;18.15;16.08;;;17.40;99.90;;;;;;4998067;28;20044;-60
2022/08/20 00:04:06;;;;;;;19.73;16.52;;;17.40;99.90;;;;;;5000381;28;20026;-60
2022/08/20 00:06:32;;;;;;;16.88;15.18;;;17.40;99.90;;;;;;5001563;28;20041;-59
2022/08/20 00:08:58;;;;;;;18.38;15.05;;;17.40;99.90;;;;;;5021027;28;20033;-58
2022/08/20 00:11:26;;;;;;;15.55;13.95;;;17.50;99.90;;;;;;5001353;28;20516;-59
2022/08/20 00:13:55;;;;;;;16.05;14.20;;;17.40;99.90;;;;;;4994561;28;20041;-61
2022/08/20 00:16:22;;;;;;;18.52;15.63;;;17.50;99.90;;;;;;5001493;28;20022;-59
2022/08/20 00:18:48;;;;;;;14.93;13.43;;;17.50;99.90;;;;;;5000346;28;20052;-60
2022/08/20 00:21:16;;;;;;;15.05;12.88;;;17.50;99.90;;;;;;5005599;28;20018;-59
2022/08/20 00:23:44;;;;;;;14.35;12.85;;;17.50;99.90;;;;;;5002096;28;20109;-60
2022/08/20 00:26:12;;;;;;;12.98;11.65;;;17.50;99.90;;;;;;5005941;28;20489;-61
2022/08/20 00:28:38;;;;;;;13.88;12.48;;;17.50;99.90;;;;;;4998276;28;20030;-61
2022/08/20 00:31:08;;;;;;;12.90;11.65;;;17.50;99.90;;;;;;4999030;28;20474;-60
2022/08/20 00:33:34;;;;;;;14.13;12.73;;;17.50;99.90;;;;;;4996779;28;20022;-58
2022/08/20 00:36:05;;;;;;;12.80;11.30;;;17.50;99.90;;;;;;4999670;28;20018;-58
2022/08/20 00:38:33;;;;;;;14.32;11.57;;;17.60;99.90;;;;;;4997890;28;20015;-61
2022/08/20 00:40:59;;;;;;;12.23;10.95;;;17.60;99.90;;;;;;5005998;28;20484;-59
2022/08/20 00:43:33;;;;;;;13.35;11.85;;;17.60;99.90;;;;;;4997696;28;20105;-61
2022/08/20 00:46:01;;;;;;;12.35;11.00;;;17.60;99.90;;;;;;4999385;28;20098;-61
2022/08/20 00:48:30;;;;;;;13.75;11.80;;;17.60;99.90;;;;;;4998068;28;20026;-60
2022/08/20 00:51:07;;;;;;;11.65;10.43;;;17.60;99.90;;;;;;4997632;28;20025;-60
2022/08/20 00:53:34;;;;;;;13.23;11.40;;;17.60;99.90;;;;;;4997590;28;20127;-58
2022/08/20 00:56:01;;;;;;;11.55;10.35;;;17.50;99.90;;;;;;5003269;28;20022;-60
2022/08/20 00:58:27;;;;;;;13.27;11.93;;;17.50;99.90;;;;;;4996607;28;20081;-59
2022/08/20 01:00:53;;;;;;;14.25;12.73;;;17.50;99.90;;;;;;4997132;28;20031;-60
2022/08/20 01:03:20;;;;;;;12.88;11.57;;;17.50;99.90;;;;;;4998961;28;20486;-60
2022/08/20 01:05:48;;;;;;;13.48;12.07;;;17.50;99.90;;;;;;4999569;28;20022;-60
2022/08/20 01:08:16;;;;;;;13.10;11.70;;;17.50;99.90;;;;;;5009692;28;20030;-58
2022/08/20 01:10:44;;;;;;;12.40;10.40;;;17.50;99.90;;;;;;5001278;28;20121;-59
2022/08/20 01:13:16;;;;;;;12.75;11.45;;;17.50;99.90;;;;;;5002604;28;20671;-59
2022/08/20 01:15:46;;;;;;;11.45;10.18;;;17.50;99.90;;;;;;5001383;28;20026;-60
2022/08/20 01:18:19;;;;;;;11.35;10.18;;;17.60;99.90;;;;;;5001914;28;20589;-60
2022/08/20 01:20:52;;;;;;;12.15;10.93;;;17.50;99.90;;;;;;5001163;28;20105;-58
2022/08/20 01:23:44;;;;;;;10.93;9.40;;;17.50;99.90;;;;;;4998589;28;20103;-58
2022/08/20 01:26:09;;;;;;;12.20;10.27;;;17.60;99.90;;;;;;5004029;28;20042;-58
2022/08/20 01:29:00;;;;;;;11.15;9.65;;;17.60;99.90;;;;;;5004107;28;20044;-58
2022/08/20 01:31:29;;;;;;;11.85;10.68;;;17.50;99.90;;;;;;5003646;28;20034;-59
2022/08/20 01:33:57;;;;;;;11.50;10.32;;;17.50;99.90;;;;;;5003580;28;20028;-60
2022/08/20 01:36:31;;;;;;;10.45;8.93;;;17.50;99.90;;;;;;5000762;28;20395;-60
2022/08/20 01:38:58;;;;;;;12.02;10.63;;;17.50;99.90;;;;;;5002875;28;20054;-58
2022/08/20 01:41:48;;;;;;;12.90;11.60;;;17.50;99.90;;;;;;5000594;28;20375;-59
2022/08/20 01:44:14;;;;;;;11.05;9.95;;;17.50;99.90;;;;;;5008681;28;20426;-59
2022/08/20 01:46:42;;;;;;;12.80;11.50;;;17.50;99.90;;;;;;4999470;28;20045;-61
2022/08/20 01:49:15;;;;;;;11.80;10.60;;;17.50;99.90;;;;;;5009026;28;20066;-58
2022/08/20 01:51:41;;;;;;;12.30;11.02;;;17.50;99.90;;;;;;5000414;28;20058;-59
2022/08/20 01:54:07;;;;;;;12.05;10.85;;;17.50;99.90;;;;;;5002748;28;20049;-60
2022/08/20 01:56:34;;;;;;;12.30;11.00;;;17.50;99.90;;;;;;5000811;28;20015;-58
2022/08/20 01:59:06;;;;;;;13.82;11.75;;;17.50;99.90;;;;;;5002001;28;20017;-61
2022/08/20 02:01:39;;;;;;;13.45;10.80;;;17.50;99.90;;;;;;5000359;28;20053;-59
2022/08/20 02:04:07;;;;;;;12.63;11.32;;;17.50;99.90;;;;;;5000475;28;20030;-59
2022/08/20 02:06:39;;;;;;;12.18;10.30;;;17.50;99.90;;;;;;5000223;28;20015;-60
2022/08/20 02:09:07;;;;;;;15.02;11.70;;;17.50;99.90;;;;;;5002460;28;20402;-60
2022/08/20 02:11:34;;;;;;;11.43;10.27;;;17.40;99.90;;;;;;4999306;28;20117;-59
2022/08/20 02:14:00;;;;;;;11.75;10.50;;;17.40;99.90;;;;;;5001466;28;20106;-58
2022/08/20 02:16:32;;;;;;;11.57;10.38;;;17.40;99.90;;;;;;4999824;28;20022;-60
2022/08/20 02:19:08;;;;;;;12.13;10.82;;;17.40;99.90;;;;;;5000991;28;20034;-59
2022/08/20 02:21:36;;;;;;;11.95;10.73;;;17.40;99.90;;;;;;4999762;28;20026;-59
2022/08/20 02:24:03;;;;;;;12.80;11.45;;;17.40;99.90;;;;;;5001537;28;20030;-59
2022/08/20 02:26:29;;;;;;;13.55;12.02;;;17.40;99.90;;;;;;5003153;28;20022;-60
2022/08/20 02:28:56;;;;;;;11.43;10.05;;;17.40;99.90;;;;;;5002270;28;20037;-57
2022/08/20 02:31:23;;;;;;;15.52;11.43;;;17.30;99.90;;;;;;4996743;28;20018;-59
2022/08/20 02:33:50;;;;;;;11.05;9.95;;;17.30;99.90;;;;;;5003200;28;20113;-58
2022/08/20 02:36:17;;;;;;;11.68;10.25;;;17.30;99.90;;;;;;4999970;28;20023;-59
2022/08/20 02:38:44;;;;;;;13.10;11.70;;;17.30;99.90;;;;;;5001224;28;20049;-59
2022/08/20 02:41:11;;;;;;;10.73;9.70;;;17.30;99.90;;;;;;5000073;28;20050;-59
2022/08/20 02:43:37;;;;;;;10.80;9.70;;;17.30;99.90;;;;;;4999242;28;20053;-60
2022/08/20 02:46:03;;;;;;;11.00;10.00;;;17.30;99.90;;;;;;5001273;28;20058;-61
2022/08/20 02:48:30;;;;;;;11.13;10.02;;;17.30;99.90;;;;;;4996820;28;20097;-59
2022/08/20 02:51:02;;;;;;;11.07;9.75;;;17.30;99.90;;;;;;5000587;28;20377;-57
2022/08/20 02:53:32;;;;;;;10.88;9.80;;;17.30;99.90;;;;;;4997929;28;20025;-56
2022/08/20 02:55:57;;;;;;;13.52;11.52;;;17.20;99.90;;;;;;5009615;28;20029;-57
2022/08/20 02:58:23;;;;;;;11.85;10.00;;;17.20;99.90;;;;;;4999292;28;20019;-56
2022/08/20 03:00:49;;;;;;;10.63;9.35;;;17.20;99.90;;;;;;5000537;28;20022;-58
2022/08/20 03:03:19;;;;;;;11.43;10.30;;;17.20;99.90;;;;;;4997790;28;20613;-57
2022/08/20 03:05:44;;;;;;;11.88;10.68;;;17.20;99.90;;;;;;4997253;28;20025;-60
2022/08/20 03:08:13;;;;;;;10.88;9.73;;;17.20;99.90;;;;;;4999726;28;20073;-59
2022/08/20 03:10:40;;;;;;;10.68;9.60;;;17.20;99.90;;;;;;4999942;28;20026;-57
2022/08/20 03:13:11;;;;;;;10.48;9.43;;;17.20;99.90;;;;;;4999831;28;20026;-60
2022/08/20 03:15:39;;;;;;;10.27;8.82;;;17.20;99.90;;;;;;4999023;28;20367;-58
2022/08/20 03:18:04;;;;;;;10.05;9.05;;;17.20;99.90;;;;;;5006760;28;20544;-58
2022/08/20 03:20:30;;;;;;;11.18;9.98;;;17.20;99.90;;;;;;4998724;28;20030;-59
2022/08/20 03:22:56;;;;;;;9.88;8.85;;;17.20;99.90;;;;;;4997948;28;20022;-59
2022/08/20 03:25:22;;;;;;;11.23;10.05;;;17.20;99.90;;;;;;4998830;28;20026;-58
2022/08/20 03:27:48;;;;;;;10.35;9.25;;;17.20;99.90;;;;;;5005214;28;20121;-59
2022/08/20 03:30:15;;;;;;;12.13;10.63;;;17.20;99.90;;;;;;4999173;28;20037;-58
2022/08/20 03:32:41;;;;;;;10.73;9.63;;;17.20;99.90;;;;;;4998352;28;20359;-59
2022/08/20 03:35:09;;;;;;;10.50;9.32;;;17.20;99.90;;;;;;5000748;28;20027;-57
2022/08/20 03:37:36;;;;;;;11.65;9.75;;;17.20;99.90;;;;;;4997913;28;20019;-60
2022/08/20 03:40:05;;;;;;;11.70;10.48;;;17.20;99.90;;;;;;5000126;28;20030;-58
2022/08/20 03:42:31;;;;;;;11.77;10.30;;;17.20;99.90;;;;;;4997681;28;20044;-60
2022/08/20 03:44:56;;;;;;;11.30;9.27;;;17.20;99.90;;;;;;4999759;28;20474;-59
2022/08/20 03:47:23;;;;;;;12.52;10.50;;;17.20;99.90;;;;;;4997759;28;20457;-60
2022/08/20 03:49:49;;;;;;;10.55;9.45;;;17.20;99.90;;;;;;4998553;28;20034;-58
2022/08/20 03:52:16;;;;;;;13.05;11.25;;;17.20;99.90;;;;;;4998771;28;20030;-59
2022/08/20 03:54:44;;;;;;;12.38;10.82;;;17.20;99.90;;;;;;4995451;28;20113;-58
2022/08/20 03:57:13;;;;;;;13.55;10.70;;;17.20;99.90;;;;;;5000928;28;20156;-59
2022/08/20 03:59:39;;;;;;;15.45;11.75;;;17.30;99.90;;;;;;4996278;28;20033;-57
2022/08/20 04:02:05;;;;;;;12.57;10.50;;;17.30;99.90;;;;;;4999946;28;20026;-59
2022/08/20 04:04:31;;;;;;;13.40;11.63;;;17.30;99.90;;;;;;4996382;28;20443;-58
2022/08/20 04:06:57;;;;;;;11.95;10.55;;;17.30;99.90;;;;;;4998975;28;20117;-59
2022/08/20 04:09:23;;;;;;;11.25;9.98;;;17.30;99.90;;;;;;5001511;28;20522;-57
2022/08/20 04:11:48;;;;;;;17.08;14.13;;;17.30;99.90;;;;;;4995300;28;20037;-57
2022/08/20 04:14:14;;;;;;;13.38;11.60;;;17.30;99.90;;;;;;4998050;28;20093;-59
2022/08/20 04:16:40;;;;;;;14.30;10.88;;;17.30;99.90;;;;;;4995943;28;20030;-57
2022/08/20 04:19:06;;;;;;;14.10;12.30;;;17.30;99.90;;;;;;5000302;28;20067;-59
2022/08/20 04:21:34;;;;;;;15.10;12.02;;;17.30;99.90;;;;;;4996141;28;20033;-58
2022/08/20 04:24:03;;;;;;;12.32;11.05;;;17.30;99.90;;;;;;4999242;28;20022;-57
2022/08/20 04:26:29;;;;;;;15.05;12.15;;;17.30;99.90;;;;;;4999950;28;20446;-56
2022/08/20 04:28:55;;;;;;;13.05;11.70;;;17.30;99.90;;;;;;5000441;28;20026;-57
2022/08/20 04:31:23;;;;;;;14.00;11.40;;;17.30;99.90;;;;;;4994654;28;20148;-57
2022/08/20 04:33:49;;;;;;;12.93;11.45;;;17.30;99.90;;;;;;5001933;28;20033;-59
2022/08/20 04:36:14;;;;;;;13.40;11.90;;;17.30;99.90;;;;;;5002018;28;20022;-55
2022/08/20 04:38:40;;;;;;;13.90;11.35;;;17.30;99.90;;;;;;5002845;28;20025;-59
2022/08/20 04:41:06;;;;;;;16.45;13.07;;;17.30;99.90;;;;;;5002843;28;20038;-57
2022/08/20 04:43:37;;;;;;;16.52;12.73;;;17.30;99.90;;;;;;5000705;28;20026;-55
2022/08/20 04:46:08;;;;;;;16.60;13.38;;;17.30;99.90;;;;;;5003304;28;20049;-57
2022/08/20 04:48:37;;;;;;;12.80;11.18;;;17.40;99.90;;;;;;5000226;28;20018;-58
2022/08/20 04:51:04;;;;;;;12.55;11.15;;;17.40;99.90;;;;;;5002847;28;20022;-56
2022/08/20 04:53:30;;;;;;;16.33;12.93;;;17.40;99.90;;;;;;5001452;28;20015;-59
2022/08/20 04:55:58;;;;;;;14.63;11.52;;;17.40;99.90;;;;;;5003985;28;20026;-59
2022/08/20 04:58:26;;;;;;;14.27;11.65;;;17.50;99.90;;;;;;5001728;28;20049;-59
2022/08/20 05:00:56;;;;;;;13.95;11.75;;;17.50;99.90;;;;;;5002773;28;20022;-59
2022/08/20 05:03:22;;;;;;;13.88;10.88;;;17.50;99.90;;;;;;5001496;28;20021;-60
2022/08/20 05:05:49;;;;;;;13.52;11.30;;;17.50;99.90;;;;;;5001773;28;20041;-59
2022/08/20 05:08:16;;;;;;;17.08;13.05;;;17.60;99.90;;;;;;5009404;28;20022;-59
2022/08/20 05:10:43;;;;;;;14.98;12.73;;;17.60;99.90;;;;;;5002723;28;20046;-59
2022/08/20 05:13:09;;;;;;;13.88;11.60;;;17.60;99.90;;;;;;5002833;28;20053;-55
2022/08/20 05:15:37;;;;;;;17.00;13.10;;;17.70;99.90;;;;;;5001253;28;20014;-57
2022/08/20 05:18:06;;;;;;;17.00;13.43;;;17.70;99.90;;;;;;5002363;28;20552;-60
2022/08/20 05:20:34;;;;;;;18.45;14.07;;;17.70;99.90;;;;;;5001405;28;20014;-58
2022/08/20 05:23:01;;;;;;;12.85;11.35;;;17.80;99.90;;;;;;5000949;28;20018;-58
2022/08/20 05:25:28;;;;;;;15.18;12.48;;;17.90;99.90;;;;;;5001361;28;20029;-57
2022/08/20 05:28:08;;;;;;;13.77;11.38;;;17.90;99.90;;;;;;5001811;28;20037;-56
2022/08/20 05:30:36;;;;;;;19.17;16.15;;;18.00;99.90;;;;;;5001501;28;20617;-58
2022/08/20 05:33:03;;;;;;;16.08;12.57;;;18.00;99.90;;;;;;5002650;28;20069;-55
2022/08/20 05:35:33;;;;;;;15.02;12.85;;;18.10;99.90;;;;;;5004135;28;20108;-58
2022/08/20 05:37:59;;;;;;;15.02;13.00;;;18.20;99.90;;;;;;5023004;28;20022;-58
2022/08/20 05:40:25;;;;;;;15.85;12.93;;;18.30;99.90;;;;;;5004336;28;20497;-58
2022/08/20 05:42:51;;;;;;;17.35;14.00;;;18.30;99.90;;;;;;4997458;28;20035;-59
2022/08/20 05:45:18;;;;;;;15.80;12.80;;;18.40;99.90;;;;;;5003445;28;20041;-57
2022/08/20 05:47:43;;;;;;;15.20;13.13;;;18.50;99.90;;;;;;4997444;28;20105;-59
2022/08/20 05:50:11;;;;;;;16.20;12.70;;;18.50;99.90;;;;;;5003580;28;20474;-57
2022/08/20 05:52:38;;;;;;;16.42;13.75;;;18.60;99.90;;;;;;5003880;28;20026;-57
2022/08/20 05:55:07;;;;;;;20.73;15.50;;;18.70;99.90;;;;;;4998205;28;20435;-57
2022/08/20 05:57:33;;;;;;;18.58;15.13;;;18.70;99.90;;;;;;5018983;28;20042;-59
2022/08/20 06:00:01;;;;;;;14.02;12.10;;;18.70;99.90;;;;;;4997206;28;20030;-58
2022/08/20 06:05:11;;;;;;;17.17;13.02;;;18.70;99.90;;;;;;4996398;28;20143;-60
2022/08/20 06:07:37;;;;;;;19.98;14.50;;;18.80;99.90;;;;;;5003871;28;20160;-59
2022/08/20 06:10:04;;;;;;;18.98;13.63;;;18.90;99.90;;;;;;5001952;28;20596;-56
2022/08/20 06:12:29;;;;;;;19.70;14.85;;;18.90;99.90;;;;;;4999319;28;20505;-59
2022/08/20 06:14:55;;;;;;;14.27;12.27;;;19.00;99.90;;;;;;5002702;28;20057;-59
2022/08/20 06:17:21;;;;;;;15.80;12.93;;;19.00;99.90;;;;;;4996329;28;20517;-59
2022/08/20 06:19:47;;;;;;;17.10;12.63;;;19.00;99.90;;;;;;5003625;28;20157;-57
2022/08/20 06:22:13;;;;;;;17.58;14.60;;;19.00;99.90;;;;;;4995049;28;20104;-59
2022/08/20 06:24:39;;;;;;;15.45;13.80;;;19.10;99.90;;;;;;5003306;28;20147;-58
2022/08/20 06:27:05;;;;;;;16.27;13.77;;;19.10;99.90;;;;;;5000908;28;20101;-58
2022/08/20 06:29:34;;;;;;;15.77;13.95;;;19.20;99.90;;;;;;4999912;28;20084;-57
2022/08/20 06:32:00;;;;;;;15.48;13.10;;;19.20;99.90;;;;;;4999053;28;20105;-57
2022/08/20 06:34:27;;;;;;;19.10;14.02;;;19.20;99.90;;;;;;5004912;28;20015;-59
2022/08/20 06:36:56;;;;;;;15.20;13.60;;;19.30;99.90;;;;;;5000161;28;20022;-59
2022/08/20 06:39:23;;;;;;;14.55;12.60;;;19.30;99.90;;;;;;5003118;28;20107;-59
2022/08/20 06:41:50;;;;;;;14.82;13.27;;;19.40;99.90;;;;;;5002292;28;20088;-59
2022/08/20 06:44:17;;;;;;;18.75;14.68;;;19.40;99.90;;;;;;4999892;28;20034;-57
2022/08/20 06:46:42;;;;;;;16.35;14.02;;;19.50;99.90;;;;;;5000596;28;20041;-59
2022/08/20 06:49:08;;;;;;;17.40;13.25;;;19.60;99.90;;;;;;5000161;28;20037;-59
2022/08/20 06:51:36;;;;;;;15.27;13.75;;;19.70;99.90;;;;;;4999064;28;20026;-59
2022/08/20 06:54:02;;;;;;;16.70;13.55;;;19.80;99.90;;;;;;4999929;28;20080;-56
2022/08/20 06:56:28;;;;;;;15.00;12.88;;;19.90;99.90;;;;;;4999408;28;20026;-59
2022/08/20 06:58:53;;;;;;;14.38;12.18;;;20.00;99.90;;;;;;5000495;28;20394;-57
2022/08/20 07:01:20;;;;;;;14.30;12.25;;;20.00;99.90;;;;;;4998999;28;20065;-58
2022/08/20 07:03:48;;;;;;;14.07;11.48;;;20.20;99.90;;;;;;4999848;28;20022;-57
2022/08/20 07:06:14;;;;;;;14.27;10.25;;;20.20;99.90;;;;;;4998214;28;20478;-57
2022/08/20 07:08:41;;;;;;;10.70;9.57;;;20.30;99.90;;;;;;4998705;28;20029;-59
2022/08/20 07:11:06;;;;;;;11.15;9.82;;;20.40;99.90;;;;;;4998241;28;20030;-58
2022/08/20 07:13:32;;;;;;;10.32;9.15;;;20.50;99.90;;;;;;4998299;28;20033;-59
2022/08/20 07:15:58;;;;;;;10.52;9.18;;;20.60;99.90;;;;;;4998892;28;20116;-57
2022/08/20 07:18:24;;;;;;;9.18;8.35;;;20.60;99.90;;;;;;4998558;28;20030;-59
2022/08/20 07:20:49;;;;;;;10.95;8.07;;;20.70;99.90;;;;;;4999371;28;20473;-59
2022/08/20 07:23:15;;;;;;;9.40;7.10;;;20.80;99.90;;;;;;4997942;28;20482;-59
2022/08/20 07:25:42;;;;;;;8.63;6.97;;;20.80;99.90;;;;;;4998667;28;20034;-59
2022/08/20 07:28:14;;;;;;;7.07;6.38;;;20.80;99.90;;;;;;5006183;28;20061;-59
2022/08/20 07:33:30;;;;;;;7.30;5.57;;;20.80;99.90;;;;;;5005046;28;20148;-59
2022/08/20 07:35:56;;;;;;;11.10;5.28;;;20.90;99.90;;;;;;4999004;28;20565;-59
2022/08/20 07:38:24;;;;;;;5.38;4.95;;;20.90;99.90;;;;;;4997726;28;20137;-59
2022/08/20 07:40:56;;;;;;;6.20;5.30;;;20.90;99.90;;;;;;4998059;28;20020;-56
2022/08/20 07:43:22;;;;;;;5.85;5.18;;;20.90;99.90;;;;;;5001130;28;20018;-58
2022/08/20 07:45:54;;;;;;;7.03;4.90;;;21.00;99.90;;;;;;4994831;28;20026;-58
2022/08/20 07:48:22;;;;;;;6.88;5.20;;;21.10;99.90;;;;;;4996595;28;20263;-59
2022/08/20 07:50:48;;;;;;;5.57;4.18;;;21.10;99.90;;;;;;4998523;28;20442;-60
2022/08/20 07:53:14;;;;;;;5.38;3.85;;;21.20;99.90;;;;;;4997636;28;20417;-59
2022/08/20 07:55:40;;;;;;;5.15;3.33;;;21.30;99.90;;;;;;4995874;28;20088;-59
2022/08/20 07:58:14;;;;;;;5.35;3.45;;;21.40;99.90;;;;;;5000237;28;20446;-59
2022/08/20 08:00:40;;;;;;;4.82;2.50;;;21.50;99.90;;;;;;4995089;28;20532;-59
2022/08/20 08:03:06;;;;;;;3.90;2.65;;;21.50;99.90;;;;;;4999683;28;20018;-59
2022/08/20 08:05:34;;;;;;;3.92;2.88;;;21.70;99.90;;;;;;5000901;28;20029;-58
2022/08/20 08:08:01;;;;;;;3.67;2.55;;;22.00;99.90;;;;;;4994924;28;20032;-59
2022/08/20 08:10:27;;;;;;;5.82;3.50;;;22.20;99.90;;;;;;5000558;28;20032;-58
2022/08/20 08:12:57;;;;;;;4.28;2.80;;;22.30;99.90;;;;;;4994135;28;20182;-57
2022/08/20 08:15:30;;;;;;;5.80;3.03;;;22.40;99.90;;;;;;5000986;28;20113;-59
2022/08/20 08:18:02;;;;;;;4.20;2.53;;;22.40;99.90;;;;;;4993065;28;20033;-56
2022/08/20 08:20:28;;;;;;;3.38;2.30;;;22.40;99.90;;;;;;5015826;28;20017;-59
2022/08/20 08:22:53;;;;;;;3.53;2.83;;;22.40;99.90;;;;;;4999842;28;20034;-56
2022/08/20 08:25:19;;;;;;;3.95;3.17;;;22.40;99.90;;;;;;4995259;28;20105;-58
2022/08/20 08:27:47;;;;;;;5.47;2.40;;;22.40;99.90;;;;;;5000966;28;20042;-58
2022/08/20 08:30:14;;;;;;;3.00;2.70;;;22.40;99.90;;;;;;4993868;28;20072;-59
2022/08/20 08:35:25;;;;;;;3.83;3.50;;;22.50;99.90;;;;;;4994966;28;20056;-58
2022/08/20 08:37:51;;;;;;;2.78;2.47;;;22.50;99.90;;;;;;5000531;28;20053;-59
2022/08/20 08:40:17;;;;;;;2.80;2.40;;;22.60;99.90;;;;;;4997795;28;20069;-58
2022/08/20 08:42:49;;;;;;;2.75;2.00;;;22.80;99.90;;;;;;4997143;28;20089;-58
2022/08/20 08:45:16;;;;;;;2.97;2.13;;;22.90;99.90;;;;;;5004463;28;20110;-57
2022/08/20 08:47:43;;;;;;;2.65;2.00;;;23.10;99.90;;;;;;4997660;28;20105;-59
2022/08/20 08:50:44;;;;;;;3.97;1.73;;;23.00;99.90;;;;;;4998984;28;20042;-56
2022/08/20 08:53:18;;;;;;;3.63;1.67;;;23.10;99.90;;;;;;4990450;28;20445;-58
2022/08/20 08:55:44;;;;;;;2.50;1.25;;;23.10;99.90;;;;;;5001249;28;20026;-57
2022/08/20 08:58:09;;;;;;;3.58;1.80;;;23.20;99.90;;;;;;4995367;28;20113;-59
2022/08/20 09:00:35;;;;;;;3.25;1.80;;;23.50;99.90;;;;;;5001208;28;20524;-58
2022/08/20 09:03:06;;;;;;;3.03;1.70;;;23.70;99.90;;;;;;4999832;28;20018;-58
2022/08/20 09:05:45;;;;;;;3.28;1.90;;;24.00;99.90;;;;;;5000894;28;20022;-59
2022/08/20 09:08:14;;;;;;;1.50;1.40;;;24.10;99.90;;;;;;4993783;28;20017;-60
2022/08/20 09:10:40;;;;;;;5.25;1.70;;;24.30;99.90;;;;;;5000134;28;20021;-59
2022/08/20 09:13:06;;;;;;;6.57;1.92;;;24.40;99.90;;;;;;4998744;28;20056;-58
2022/08/20 09:15:32;;;;;;;3.20;1.70;;;24.50;99.90;;;;;;4994709;28;20109;-60
2022/08/20 09:17:58;;;;;;;5.72;2.45;;;24.50;99.90;;;;;;4999729;28;20026;-59
2022/08/20 09:20:23;;;;;;;3.63;1.90;;;24.60;99.90;;;;;;4996043;28;20026;-59
2022/08/20 09:22:49;;;;;;;3.55;1.83;;;24.50;99.90;;;;;;5004470;28;20026;-59
2022/08/20 09:25:15;;;;;;;10.52;2.78;;;24.50;99.90;;;;;;4997485;28;20155;-57
2022/08/20 09:27:41;;;;;;;6.63;2.00;;;24.40;99.90;;;;;;5004387;28;20393;-58
2022/08/20 09:30:08;;;;;;;6.35;2.50;;;24.40;99.90;;;;;;5001926;28;20052;-59
2022/08/20 09:32:34;;;;;;;3.70;2.33;;;24.30;99.90;;;;;;5000253;28;20516;-60
2022/08/20 09:34:59;;;;;;;3.58;1.67;;;24.30;99.90;;;;;;5002475;28;20026;-60
2022/08/20 09:37:28;;;;;;;12.07;2.97;;;24.30;99.90;;;;;;4998407;28;20076;-60
2022/08/20 09:39:53;;;;;;;8.60;2.08;;;24.30;99.90;;;;;;5003004;28;20418;-59
2022/08/20 09:42:29;;;;;;;4.25;1.75;;;24.30;99.90;;;;;;4999878;28;20018;-58
2022/08/20 09:44:55;;;;;;;;;;;24.20;99.90;;;;;;5002496;28;20022;-58
2022/08/20 09:47:21;;;;;;;;;;;24.20;99.90;;;;;;5001691;28;19958;-58
2022/08/20 09:49:47;;;;;;;4.38;1.63;;;24.10;99.90;;;;;;5001462;28;19905;-58
2022/08/20 09:52:30;;;;;;;7.97;1.85;;;24.20;99.90;;;;;;5000470;28;20039;-59
2022/08/20 09:55:01;;;;;;;6.32;2.15;;;24.30;99.90;;;;;;5001597;28;20057;-58
2022/08/20 09:57:28;;;;;;;4.00;2.13;;;24.40;99.90;;;;;;5004106;28;20033;-59
2022/08/20 10:00:00;;;;;;;5.25;2.88;;;24.30;99.90;;;;;;4996185;28;20073;-60
2022/08/20 10:02:26;;;;;;;5.63;2.22;;;24.20;99.90;;;;;;5000224;28;20025;-60
2022/08/20 10:04:52;;;;;;;4.30;1.77;;;24.20;99.90;;;;;;4995681;28;20033;-60
2022/08/20 10:07:18;;;;;;;9.25;2.17;;;24.20;99.90;;;;;;5003495;28;20105;-60
2022/08/20 10:09:43;;;;;;;4.93;2.20;;;24.20;99.90;;;;;;5003909;28;20132;-59
2022/08/20 10:12:09;;;;;;;5.63;2.05;;;24.20;99.90;;;;;;4996822;28;20540;-59
2022/08/20 10:14:34;;;;;;;9.30;1.67;;;24.30;99.90;;;;;;5003758;28;20530;-60
2022/08/20 10:17:01;;;;;;;6.28;2.17;;;24.20;99.90;;;;;;4996341;28;20078;-60
2022/08/20 10:19:29;;;;;;;6.72;1.98;;;24.30;99.90;;;;;;5003377;28;20029;-59
2022/08/20 10:21:56;;;;;;;4.55;1.83;;;24.30;98.50;;;;;;5002479;28;20030;-60
2022/08/20 10:24:22;;;;;;;4.65;2.15;;;24.20;99.20;;;;;;4998737;28;20148;-59
2022/08/20 10:26:48;;;;;;;6.38;1.98;;;24.30;99.60;;;;;;5003894;28;20524;-60
2022/08/20 10:29:14;;;;;;;4.10;1.90;;;24.30;99.90;;;;;;4996060;28;20022;-59
2022/08/20 10:31:40;;;;;;;6.88;2.35;;;24.30;99.90;;;;;;5002750;28;20398;-59
2022/08/20 10:34:06;;;;;;;4.60;2.30;;;24.30;99.90;;;;;;5001047;28;20022;-59
2022/08/20 10:36:31;;;;;;;5.38;2.28;;;24.20;99.90;;;;;;4999796;28;20656;-60
2022/08/20 10:38:57;;;;;;;7.50;2.08;;;24.20;99.90;;;;;;5001945;28;20030;-59
2022/08/20 10:41:23;;;;;;;4.70;2.13;;;24.20;99.90;;;;;;4998369;28;20022;-58
2022/08/20 10:43:49;;;;;;;8.52;2.55;;;24.20;99.90;;;;;;5002946;28;20026;-58
2022/08/20 10:46:15;;;;;;;6.75;2.90;;;24.20;99.90;;;;;;5003094;28;20104;-59
2022/08/20 10:48:40;;;;;;;4.88;2.13;;;24.20;99.90;;;;;;5002735;28;20443;-59
2022/08/20 10:51:06;;;;;;;4.68;1.80;;;24.20;99.90;;;;;;4995365;28;20034;-60
2022/08/20 10:53:31;;;;;;;6.55;2.15;;;24.30;99.90;;;;;;5010897;28;20029;-58
2022/08/20 10:55:57;;;;;;;7.32;2.00;;;24.20;99.90;;;;;;5009625;28;20049;-60
2022/08/20 10:58:24;;;;;;;4.63;2.20;;;24.20;99.40;;;;;;4997916;28;20026;-59
2022/08/20 11:00:50;;;;;;;4.07;1.20;;;24.20;99.20;;;;;;5002662;28;20026;-60
2022/08/20 11:03:15;;;;;;;5.45;1.90;;;24.20;98.10;;;;;;4996429;28;20112;-60
2022/08/20 11:05:41;;;;;;;5.32;2.08;;;24.10;97.50;;;;;;5002183;28;20081;-59
2022/08/20 11:08:07;;;;;;;4.53;1.83;;;24.00;98.00;;;;;;5024223;28;20629;-61
2022/08/20 11:10:34;;;;;;;4.95;2.05;;;24.00;98.10;;;;;;5002189;28;20029;-59
2022/08/20 11:13:01;;;;;;;3.95;1.13;;;24.00;98.60;;;;;;5000407;28;20501;-60
2022/08/20 11:15:27;;;;;;;2.10;1.20;;;24.00;98.90;;;;;;4998088;28;20048;-60
2022/08/20 11:17:54;;;;;;;4.07;1.20;;;24.00;98.60;;;;;;5002053;28;20537;-60
2022/08/20 11:20:23;;;;;;;3.58;1.75;;;24.10;97.70;;;;;;5033297;23;20046;-46
2022/08/20 11:22:49;;;;;;;2.67;1.20;;;24.20;97.10;;;;;;5004364;28;20101;-50
2022/08/20 11:25:15;;;;;;;5.60;1.60;;;24.20;97.80;;;;;;5002346;28;20101;-46
2022/08/20 11:27:44;;;;;;;6.32;1.45;;;24.20;97.60;;;;;;5002319;28;20080;-50
2022/08/20 11:30:14;;;;;;;3.70;1.40;;;24.20;96.60;;;;;;5002036;28;20185;-50
2022/08/20 11:32:40;;;;;;;4.43;1.85;;;24.20;96.40;;;;;;5009871;28;20034;-51
2022/08/20 11:35:07;;;;;;;2.88;1.15;;;24.30;97.00;;;;;;5009970;28;20390;-46
2022/08/20 11:37:33;;;;;;;4.07;1.40;;;24.30;97.10;;;;;;5010195;28;20054;-47
2022/08/20 11:39:58;;;;;;;7.45;1.80;;;24.20;96.00;;;;;;5007514;28;20053;-45
2022/08/20 11:42:24;;;;;;;5.15;1.42;;;24.20;96.90;;;;;;5009802;28;20030;-48
2022/08/20 11:44:49;;;;;;;3.45;1.13;;;24.20;97.10;;;;;;5009614;28;20083;-48
2022/08/20 11:47:25;;;;;;;4.38;1.17;;;24.30;95.80;;;;;;5010047;28;20025;-47
2022/08/20 11:50:04;;;;;;;2.13;1.02;;;24.40;96.00;;;;;;5010022;28;20033;-46
2022/08/20 11:52:30;;;;;;;5.85;1.27;;;24.50;96.20;;;;;;5009834;28;20037;-50
2022/08/20 11:54:57;;;;;;;5.88;1.35;;;24.40;96.20;;;;;;5009983;28;20029;-48
2022/08/20 11:57:28;;;;;;;7.38;1.48;;;24.50;95.50;;;;;;5009962;28;20010;-46
2022/08/20 11:59:56;;;;;;;2.58;0.95;;;24.40;95.70;;;;;;5009762;28;20053;-46
2022/08/20 12:02:22;;;;;;;5.18;2.40;;;24.30;93.60;;;;;;5002420;28;20021;-48
2022/08/20 12:04:48;;;;;;;3.60;1.30;;;24.30;93.80;;;;;;5009720;28;20105;-49
2022/08/20 12:07:21;;;;;;;4.65;1.25;;;24.30;94.00;;;;;;5009647;28;20222;-50
2022/08/20 12:09:47;;;;;;;2.03;0.90;;;24.30;93.70;;;;;;5010066;28;20421;-47
2022/08/20 12:12:14;;;;;;;2.72;0.77;;;24.20;92.90;;;;;;5009337;28;20037;-45
2022/08/20 12:14:40;;;;;;;3.80;1.05;;;24.20;93.60;;;;;;5009527;28;20029;-48
2022/08/20 12:17:11;;;;;;;3.40;0.98;;;24.10;93.60;;;;;;5009910;28;20048;-47
2022/08/20 12:19:41;;;;;;;2.60;1.08;;;24.10;93.10;;;;;;5009855;28;20401;-45
2022/08/20 12:22:09;;;;;;;3.35;1.08;;;24.10;93.00;;;;;;5008872;28;20118;-46
2022/08/20 12:24:35;;;;;;;3.40;1.20;;;24.10;92.80;;;;;;5009927;28;20080;-49
2022/08/20 12:27:23;;;;;;;6.65;1.42;;;24.20;92.60;;;;;;5009650;28;20449;-45
2022/08/20 12:29:52;;;;;;;1.98;0.90;;;24.30;92.80;;;;;;5006355;28;20026;-49
2022/08/20 12:32:18;;;;;;;3.88;1.65;;;24.40;92.80;;;;;;5007768;28;20126;-47
2022/08/20 12:34:44;;;;;;;3.35;1.30;;;24.60;92.50;;;;;;5009774;28;20026;-48
2022/08/20 12:37:15;;;;;;;2.00;1.20;;;24.70;91.60;;;;;;5009498;28;20022;-45
2022/08/20 12:39:44;;;;;;;5.88;1.58;;;24.70;91.10;;;;;;5008332;28;20413;-47
2022/08/20 12:42:09;;;;;;;2.10;0.90;;;24.70;90.80;;;;;;5008693;28;20034;-46
2022/08/20 12:44:36;;;;;;;2.63;0.85;;;24.50;91.10;;;;;;5009695;28;20136;-48
2022/08/20 12:47:08;;;;;;;4.82;1.25;;;24.60;92.50;;;;;;5009282;28;20078;-49